Flight Track Log - Related Links

Times and Time Zones

All times are in EDT time to prevent confusion due to time zone crossing. See the AMF1324 flight status page for this flight to view local times or setup timezone preferences in your user account.

Time Position Orientation Groundspeed Altitude Reporting Facility
EDT Latitude Longitude Course Direction KTS MPH feet Rate Location/Type
Thu 06:33:07 AM 42.9333 -78.7500 180° South 120 138 2,100  Level Buffalo TRACON
Thu 06:33:37 AM 42.9167 -78.7500 180° South 141 162 2,900 1,877 Climbing Buffalo TRACON
Thu 06:36:06 AM 42.8986 -78.5839 98° East 200 230 7,700 1,829 Climbing Cleveland Center
Thu 06:37:07 AM 42.8922 -78.5006 96° East 208 239 9,300 1,230 Climbing Cleveland Center
Thu 06:38:08 AM 42.8847 -78.4306 98° East 221 254 10,200 1,180 Climbing Cleveland Center
Thu 06:39:09 AM 42.8703 -78.3261 101° East 233 268 11,700 1,328 Climbing Cleveland Center
Thu 06:40:10 AM 42.8592 -78.2381 100° East 237 273 12,900 639 Climbing Cleveland Center
Thu 06:41:11 AM 42.8492 -78.1417 98° East 261 300 13,000 49 Climbing Cleveland Center
Thu 06:42:13 AM 42.8397 -78.0353 97° East 280 322 13,000  Level Cleveland Center
Thu 06:43:14 AM 42.8325 -77.9286 95° East 280 322 13,000  Level Cleveland Center
Thu 06:44:15 AM 42.8239 -77.8183 96° East 291 335 13,000 49 Level Cleveland Center
Thu 06:45:16 AM 42.8186 -77.7094 94° East 290 334 13,100 49 Climbing Cleveland Center
Thu 06:46:18 AM 42.7797 -77.6119 118° Southeast 291 335 13,100  Level Cleveland Center
Thu 06:47:19 AM 42.7431 -77.5108 116° Southeast 292 336 13,100  Level Cleveland Center
Thu 06:48:20 AM 42.7058 -77.4103 117° Southeast 293 337 13,100  Level Cleveland Center
Thu 06:49:22 AM 42.6647 -77.3131 120° Southeast 294 338 13,100  Level Cleveland Center
Thu 06:50:23 AM 42.6244 -77.2156 119° Southeast 294 338 13,100  Level Cleveland Center
Thu 06:51:24 AM 42.5814 -77.1183 121° Southeast 298 343 13,100  Level Cleveland Center
Thu 06:52:26 AM 42.5378 -77.0211 121° Southeast 298 343 13,100  Level Cleveland Center
Thu 06:53:27 AM 42.4858 -76.9053 121° Southeast 299 344 13,100 -344 Level Cleveland Center
Thu 06:54:28 AM 42.4428 -76.8061 120° Southeast 301 346 12,400 -1,160 Descending Cleveland Center
Thu 06:55:26 AM 42.3978 -76.7006 120° Southeast 314 361 10,800 -1,424 Descending New Center
Thu 06:56:26 AM 42.3658 -76.5883 111° Southeast 320 368 9,600 -1,450 Descending New Center
Thu 06:57:26 AM 42.3400 -76.4794 108° East 314 361 7,900 -1,594 Descending New Center
Thu 06:58:34 AM 42.3142 -76.3656 107° East 290 334 6,200 -1,477 Descending Cleveland Center
Thu 06:59:36 AM 42.2944 -76.2678 105° East 278 320 4,700 -1,446 Descending Cleveland Center
Thu 07:00:26 AM 42.2747 -76.1850 108° East 277 319 3,500 -818 Descending New Center
Thu 07:01:26 AM 42.2575 -76.1025 106° East 249 287 3,200 -250 Descending New Center
Thu 07:02:26 AM 42.2461 -76.0342 103° East 215 247 3,000 -200 Descending New Center
Thu 07:03:26 AM 42.2347 -75.9606 102° East 207 238 2,800 -200 Descending New Center

Login

Don't have an account? Register now (free) for customized features, flight alerts, and more!